Latest Weather Observations for Curtin

IDW60801

Issued at 7:35 am WST Sunday 23 November 2014 (issued every 30 minutes, with the page automatically refreshed every 10 minutes)

About weather observations | Map of weather stations | Latest weather observations for WA | Other Formats
Station Details ID: 003080 Name: CURTIN AERO Lat: -17.58 Lon: 123.83 Height: 77.5 m
Data from the previous 72 hours. | See also: Recent months at Curtin
Date/Time
WST
Temp
°C
App
Temp
°C
Dew
Point
Rel
Hum
%
Delta-T
°C
Wind Press
QNH
hPa
Press
MSL
hPa
Rain
since 9 am
mm
Dir
 
Spd
km/h
Gust
km/h
Spd
kts
Gust
kts
23/07:30am 31.0 33.9 23.9 66 4.9 NNW 15 20 8 11 1010.4 1009.8 0.0
23/07:00am 29.9 33.8 25.4 77 3.2 WNW 15 20 8 11 1010.3 1009.7 0.0
23/06:30am 28.6 33.2 24.8 80 2.7 W 9 17 5 9 1010.3 1009.7 0.0
23/06:00am 27.7 32.4 24.9 85 2.0 WSW 9 15 5 8 1009.9 1009.3 0.0
23/05:30am 25.8 30.8 23.8 89 1.4 S 4 6 2 3 1009.5 1008.9 0.0
23/05:00am 25.2 30.6 23.3 89 1.3 CALM 0 0 0 0 1009.3 1008.7 0.0
23/04:30am 26.3 30.4 24.0 87 1.6 SSW 9 11 5 6 1009.3 1008.7 0.0
23/04:00am 26.5 30.8 24.2 87 1.6 WSW 9 9 5 5 1008.9 1008.3 0.0
23/03:30am 25.7 29.8 23.0 85 1.8 N 6 7 3 4 1008.8 1008.2 0.0
23/03:00am 26.6 31.0 23.5 83 2.1 N 6 7 3 4 1008.6 1008.0 0.0
23/02:30am 27.7 31.8 23.9 80 2.6 N 9 11 5 6 1008.7 1008.1 0.0
23/02:00am 28.2 32.3 24.0 78 2.9 N 9 15 5 8 1008.7 1008.1 0.0
23/01:30am 28.5 32.1 24.3 78 2.9 N 13 20 7 11 1008.9 1008.3 0.0
23/01:00am 28.4 33.0 25.4 84 2.1 N 11 19 6 10 1009.1 1008.5 0.0
23/12:30am 28.5 33.1 25.3 83 2.3 NNE 11 17 6 9 1009.1 1008.5 0.0
23/12:00am 28.7 33.1 25.1 81 2.5 NNE 11 17 6 9 1009.4 1008.8 0.0
 
Date/Time
WST
Temp
°C
App
Temp
°C
Dew
Point
Rel
Hum
%
Delta-T
°C
Wind Press
QNH
hPa
Press
MSL
hPa
Rain
since 9 am
mm
Dir
 
Spd
km/h
Gust
km/h
Spd
kts
Gust
kts
22/11:30pm 28.9 33.8 25.3 81 2.5 NNE 9 13 5 7 1009.5 1008.9 0.0
22/11:00pm 29.0 33.5 24.6 77 3.1 NE 9 13 5 7 1009.4 1008.8 0.0
22/10:30pm 29.7 34.0 24.3 73 3.8 NNE 9 13 5 7 1009.3 1008.7 0.0
22/10:00pm 29.7 33.1 24.6 74 3.6 NE 15 20 8 11 1009.6 1009.0 0.0
22/09:30pm 29.4 33.4 23.1 69 4.3 N 7 9 4 5 1009.0 1008.4 0.0
22/09:00pm 29.3 32.6 21.8 64 5.1 N 7 9 4 5 1008.8 1008.2 0.0
22/08:30pm 30.9 34.7 22.8 62 5.6 NNW 7 9 4 5 1008.6 1008.0 0.0
22/08:00pm 31.9 35.6 22.6 58 6.4 NW 7 9 4 5 1008.4 1007.8 0.0
22/07:30pm 32.6 35.8 22.4 55 7.0 NNW 9 13 5 7 1008.1 1007.5 0.0
22/07:00pm 33.6 36.1 21.7 49 8.1 NW 11 15 6 8 1007.4 1006.8 0.0
22/06:30pm 34.1 35.7 20.8 45 9.0 NW 13 20 7 11 1006.9 1006.3 0.0
22/06:00pm 34.6 35.0 20.6 44 9.4 NW 19 26 10 14 1006.5 1005.9 0.0
22/05:30pm 35.0 35.7 20.5 42 9.8 NW 17 26 9 14 1006.3 1005.7 0.0
22/05:00pm 36.0 35.1 19.0 36 11.3 NW 22 35 12 19 1006.0 1005.4 0.0
22/04:30pm 37.2 34.7 15.1 27 13.9 NW 22 32 12 17 1005.6 1005.0 0.0
22/04:00pm 38.4 35.9 16.1 27 14.3 NW 24 32 13 17 1005.4 1004.8 0.0
22/03:30pm 40.5 40.4 13.9 21 16.7 SSW 7 15 4 8 1005.3 1004.7 0.0
22/03:00pm 39.5 38.4 13.1 21 16.3 N 11 17 6 9 1005.5 1004.9 0.0
22/02:30pm 41.1 41.2 14.4 21 16.9 NW 7 13 4 7 1005.8 1005.2 0.0
22/02:00pm 40.6 40.2 14.0 21 16.7 SE 9 15 5 8 1006.3 1005.7 0.0
22/01:30pm 39.1 39.1 13.5 22 15.9 NE 6 9 3 5 1006.8 1006.2 0.0
22/01:00pm 39.8 39.0 14.1 22 16.1 SE 11 17 6 9 1007.3 1006.7 0.0
22/12:30pm 39.8 38.6 14.1 22 16.1 SW 13 26 7 14 1007.7 1007.1 0.0
22/12:00pm 39.7 39.3 14.0 22 16.1 SSW 9 20 5 11 1008.2 1007.6 0.0
22/11:30am 39.4 37.9 13.0 21 16.3 SSE 13 26 7 14 1008.6 1008.0 0.0
22/11:00am 38.9 37.9 14.7 24 15.3 SSW 13 19 7 10 1009.1 1008.5 0.0
22/10:30am 38.1 36.9 14.0 24 15.0 SSW 13 20 7 11 1009.6 1009.0 0.0
22/10:00am 37.5 35.9 12.8 22 15.1 SW 13 20 7 11 1010.0 1009.4 0.0
22/09:30am 36.6 35.8 15.1 27 13.5 WSW 13 22 7 12 1010.1 1009.5 0.0
22/09:00am 35.2 35.3 15.5 30 12.4 SW 9 15 5 8 1010.5 1009.9 0.0
22/08:30am 34.0 33.8 16.8 35 11.0 SW 13 15 7 8 1010.6 1010.0 0.0
22/08:00am 32.8 34.1 17.0 38 10.1 WSW 6 9 3 5 1010.7 1010.1 0.0
22/07:30am 31.3 33.4 19.0 48 8.0 WSW 6 7 3 4 1010.5 1009.9 0.0
22/07:00am 30.4 32.4 19.1 50 7.4 WSW 7 9 4 5 1010.2 1009.6 0.0
22/06:30am 29.3 32.4 20.2 58 6.0 W 4 7 2 4 1010.0 1009.4 0.0
22/06:00am 27.3 32.5 22.9 77 3.0 CALM 0 0 0 0 1009.7 1009.1 0.0
22/05:30am 26.4 30.9 23.7 85 1.9 NW 6 7 3 4 1009.2 1008.6 0.0
22/05:00am 26.4 30.6 23.5 84 2.0 NNE 7 9 4 5 1009.0 1008.4 0.0
22/04:30am 26.5 30.6 23.0 81 2.4 NNE 6 7 3 4 1008.7 1008.1 0.0
22/04:00am 27.3 32.7 23.3 79 2.7 CALM 0 0 0 0 1008.3 1007.7 0.0
22/03:30am 27.4 31.8 23.8 81 2.5 NE 7 9 4 5 1008.3 1007.7 0.0
22/03:00am 27.5 32.2 23.9 81 2.5 NNE 6 7 3 4 1007.9 1007.3 0.0
22/02:30am 27.5 32.1 24.1 82 2.4 NNE 7 9 4 5 1007.8 1007.2 0.0
22/02:00am 27.7 31.9 24.1 81 2.5 NNE 9 9 5 5 1007.6 1007.0 0.0
22/01:30am 27.9 32.8 24.3 81 2.5 NNW 6 9 3 5 1007.1 1006.5 0.0
22/01:00am 27.7 32.5 24.1 81 2.5 NNE 6 9 3 5 1007.6 1007.0 0.0
22/12:30am 27.8 32.3 24.0 80 2.6 N 7 9 4 5 1007.6 1007.0 0.0
22/12:00am 27.8 31.9 24.0 80 2.6 N 9 11 5 6 1008.0 1007.4 0.0
 
Date/Time
WST
Temp
°C
App
Temp
°C
Dew
Point
Rel
Hum
%
Delta-T
°C
Wind Press
QNH
hPa
Press
MSL
hPa
Rain
since 9 am
mm
Dir
 
Spd
km/h
Gust
km/h
Spd
kts
Gust
kts
21/11:30pm 27.5 31.2 23.3 78 2.9 N 9 11 5 6 1008.3 1007.7 0.0
21/11:00pm 28.4 32.5 24.0 77 3.1 NNE 9 13 5 7 1008.6 1008.0 0.0
21/10:30pm 28.2 32.3 22.9 73 3.6 N 6 11 3 6 1008.7 1008.1 0.0
21/10:00pm 28.8 33.4 21.8 66 4.7 CALM 0 0 0 0 1008.8 1008.2 0.0
21/09:30pm 29.5 34.2 22.0 64 5.1 CALM 0 0 0 0 1008.7 1008.1 0.0
21/09:00pm 30.4 34.3 22.6 63 5.3 NNW 6 9 3 5 1008.6 1008.0 0.0
21/08:30pm 31.0 34.7 22.6 61 5.8 NNW 7 11 4 6 1008.5 1007.9 0.0
21/08:00pm 31.5 34.6 22.2 57 6.4 NNW 9 13 5 7 1008.2 1007.6 0.0
21/07:30pm 32.0 34.6 21.2 52 7.3 NNW 9 15 5 8 1007.7 1007.1 0.0
21/07:00pm 32.3 33.8 21.2 52 7.5 NW 15 19 8 10 1007.1 1006.5 0.0
21/06:30pm 33.8 34.2 19.8 43 9.3 WNW 17 32 9 17 1006.7 1006.1 0.0
21/06:00pm 36.0 36.9 16.7 31 12.4 WNW 7 20 4 11 1006.3 1005.7 0.0
21/05:30pm 37.2 37.7 15.6 27 13.7 WNW 7 11 4 6 1006.0 1005.4 0.0
21/05:00pm 38.0 38.1 14.5 24 14.8 WSW 7 9 4 5 1005.8 1005.2 0.0
21/04:30pm 38.2 38.4 14.7 24 14.8 WSW 7 11 4 6 1005.7 1005.1 0.0
21/04:00pm 38.3 38.0 15.4 25 14.6 SW 11 13 6 7 1005.8 1005.2 0.0
21/03:30pm 38.0 38.4 16.3 27 13.9 SW 9 13 5 7 1005.9 1005.3 0.0
21/03:00pm 38.0 38.6 15.7 26 14.2 WSW 7 11 4 6 1006.3 1005.7 0.0
21/02:30pm 38.1 38.1 15.2 25 14.5 SW 9 13 5 7 1006.7 1006.1 0.0
21/02:00pm 38.0 37.2 15.2 26 14.4 SW 13 19 7 10 1006.9 1006.3 0.0
21/01:30pm 37.6 36.9 15.4 27 14.1 W 13 20 7 11 1007.3 1006.7 0.0
21/01:00pm 37.8 37.6 16.7 29 13.6 WSW 13 17 7 9 1007.9 1007.3 0.0
21/12:30pm 37.3 38.1 17.3 30 13.0 SSW 9 17 5 9 1008.3 1007.7 0.0
21/12:00pm 36.2 35.7 16.9 32 12.4 SW 15 20 8 11 1008.6 1008.0 0.0
21/11:30am 36.1 35.2 16.8 32 12.4 SW 17 20 9 11 1009.0 1008.4 0.0
21/11:00am 36.2 36.3 16.4 31 12.7 W 11 19 6 10 1009.6 1009.0 0.0
21/10:30am 34.7 36.1 17.9 37 10.9 S 7 13 4 7 1010.2 1009.6 0.0
21/10:00am 34.1 36.0 18.6 40 10.2 ENE 6 11 3 6 1010.7 1010.1 0.0
21/09:30am 34.3 36.1 19.5 41 9.8 NNE 9 15 5 8 1011.0 1010.4 0.0
21/09:00am 33.3 34.8 19.7 44 9.0 NNE 11 15 6 8 1011.3 1010.7 0.0
21/08:30am 32.8 34.2 19.6 45 8.7 NE 11 15 6 8 1011.2 1010.6 0.0
21/08:00am 32.6 33.4 19.1 44 8.9 NNE 13 20 7 11 1011.3 1010.7 0.0
21/07:30am 30.5 31.8 20.1 53 6.9 NNE 13 17 7 9 1011.1 1010.5 0.0
21/07:00am 29.4 32.2 20.8 60 5.7 NNE 7 9 4 5 1010.7 1010.1 0.0
21/06:30am 29.1 31.6 20.3 59 5.8 N 7 7 4 4 1010.0 1009.4 0.0
21/06:00am 28.6 31.1 19.8 59 5.8 NW 6 7 3 4 1009.6 1009.0 0.0
21/05:30am 28.3 30.6 19.8 60 5.6 WNW 7 9 4 5 1009.1 1008.5 0.0
21/05:00am 27.3 29.3 19.9 64 4.8 NNW 9 11 5 6 1008.8 1008.2 0.0
21/04:30am 26.4 28.8 20.0 68 4.2 NNW 7 9 4 5 1008.6 1008.0 0.0
21/04:00am 26.7 29.3 20.1 67 4.3 N 6 6 3 3 1008.2 1007.6 0.0
21/03:30am 26.8 29.9 20.2 67 4.3 N 4 6 2 3 1008.2 1007.6 0.0
21/03:00am 26.3 28.8 19.9 68 4.2 ENE 6 7 3 4 1008.1 1007.5 0.0
21/02:30am 27.4 30.0 20.0 64 4.8 ENE 6 7 3 4 1008.0 1007.4 0.0
21/02:00am 28.0 30.2 20.3 63 5.1 NE 9 9 5 5 1007.8 1007.2 0.0
21/01:30am 28.9 31.7 20.4 60 5.6 N 6 7 3 4 1007.7 1007.1 0.0
21/01:00am 29.5 31.3 19.5 55 6.6 ENE 9 11 5 6 1008.0 1007.4 0.0
21/12:30am 30.1 32.0 19.8 54 6.8 WSW 9 11 5 6 1008.0 1007.4 0.0
21/12:00am 30.3 32.5 20.5 55 6.5 WSW 9 13 5 7 1008.1 1007.5 0.0
 
Date/Time
WST
Temp
°C
App
Temp
°C
Dew
Point
Rel
Hum
%
Delta-T
°C
Wind Press
QNH
hPa
Press
MSL
hPa
Rain
since 9 am
mm
Dir
 
Spd
km/h
Gust
km/h
Spd
kts
Gust
kts
20/11:30pm 30.4 32.8 20.0 53 6.9 W 7 9 4 5 1008.4 1007.8 0.0
20/11:00pm 30.9 32.3 18.6 48 8.0 WNW 9 13 5 7 1008.5 1007.9 0.0
20/10:30pm 31.1 32.3 19.1 48 7.8 W 11 15 6 8 1008.8 1008.2 0.0
20/10:00pm 31.1 33.9 21.6 57 6.4 W 9 13 5 7 1008.9 1008.3 0.0
20/09:30pm 31.6 34.5 21.7 55 6.7 WNW 9 13 5 7 1009.0 1008.4 0.0
20/09:00pm 31.3 34.9 22.3 58 6.2 W 7 11 4 6 1008.9 1008.3 0.0
20/08:30pm 31.1 34.3 21.6 57 6.4 W 7 9 4 5 1008.8 1008.2 0.0
20/08:00pm 30.8 33.8 21.3 57 6.4 NW 7 9 4 5 1008.5 1007.9 0.0
20/07:30pm 30.9 34.0 20.2 53 7.1 SW 4 6 2 3 1008.3 1007.7 0.0
20/07:00pm 31.4 34.6 20.4 52 7.3 NW 4 7 2 4 1007.9 1007.3 0.0
20/06:30pm 32.3 34.6 19.9 48 8.2 NNE 7 9 4 5 1007.4 1006.8 0.0
20/06:00pm 33.4 35.3 19.8 44 9.0 N 9 15 5 8 1007.1 1006.5 0.0
20/05:30pm 34.2 35.4 20.6 45 9.1 NNW 15 24 8 13 1006.7 1006.1 0.0
20/05:00pm 36.3 37.6 17.0 32 12.5 N 6 7 3 4 1006.4 1005.8 0.0
20/04:30pm 36.7 37.9 16.8 30 12.8 NNW 6 7 3 4 1006.2 1005.6 0.0
20/04:00pm 36.4 36.7 17.0 31 12.5 WNW 11 15 6 8 1006.0 1005.4 0.0
20/03:30pm 37.2 36.6 16.7 29 13.2 W 15 19 8 10 1006.1 1005.5 0.0
20/03:00pm 35.2 35.7 18.3 36 11.1 W 13 20 7 11 1006.4 1005.8 0.0
20/02:30pm 33.4 34.1 20.5 46 8.6 W 17 24 9 13 1006.7 1006.1 0.0
20/02:00pm 30.0 29.9 20.8 57 6.1 NNW 22 35 12 19 1007.3 1006.7 0.0
20/01:33pm 32.3 32.0 19.5 46 8.4 NW 20 26 11 14 1007.6 1007.0 0.0
20/01:30pm 32.9 29.0 18.7 43 9.3 W 37 80 20 43 1007.4 1006.8 0.0
20/01:24pm 33.1 28.7 18.5 42 9.5 WSW 39 65 21 35 1007.0 1006.4 0.0
20/01:00pm 38.8 39.2 15.2 24 15.0 W 7 13 4 7 1007.4 1006.8 0.0
20/12:30pm 39.1 38.4 15.5 25 15.0 S 13 20 7 11 1007.9 1007.3 0.0
20/12:00pm 39.4 40.0 15.7 24 15.2 SSE 7 19 4 10 1008.3 1007.7 0.0
20/11:30am 39.6 40.1 16.5 25 14.9 W 9 15 5 8 1008.7 1008.1 0.0
20/11:00am 38.2 37.8 15.3 25 14.5 S 11 17 6 9 1009.2 1008.6 0.0
20/10:30am 38.2 37.9 16.5 28 14.0 WSW 13 22 7 12 1009.7 1009.1 0.0
20/10:00am 37.6 37.3 16.5 28 13.6 SW 13 24 7 13 1010.1 1009.5 0.0
20/09:30am 37.0 36.2 17.1 31 12.9 W 17 28 9 15 1010.5 1009.9 0.0
20/09:00am 35.4 35.7 18.0 35 11.3 WSW 13 19 7 10 1010.8 1010.2 0.0
20/08:30am 35.2 36.3 19.6 40 10.4 SW 13 20 7 11 1010.9 1010.3 0.0
20/08:00am 32.8 33.9 19.6 45 8.7 WSW 13 17 7 9 1010.7 1010.1 0.0

Other Formats:

Comma delimited format used in spreadsheet applications
http://www.bom.gov.au/fwo/IDW60801/IDW60801.94204.axf

JavaScript Object Notation format (JSON) in row-major order
http://www.bom.gov.au/fwo/IDW60801/IDW60801.94204.json